createdAt,value
2022-09-06T00:00:18.090Z,100293.53
2022-09-06T00:02:45.398Z,100284.25
2022-09-06T00:05:13.381Z,100288.72
2022-09-06T00:07:40.544Z,100286.00
2022-09-06T00:10:08.436Z,100283.03
2022-09-06T00:12:36.073Z,100279.66
2022-09-06T00:15:04.242Z,100281.16
2022-09-06T00:17:33.239Z,100278.00
2022-09-06T00:20:00.092Z,100270.22
2022-09-06T00:22:26.967Z,100278.44
2022-09-06T00:24:53.731Z,100272.56
2022-09-06T00:27:20.540Z,100268.13
2022-09-06T00:29:47.345Z,100268.38
2022-09-06T00:32:14.190Z,100278.44
2022-09-06T00:34:40.986Z,100268.78
2022-09-06T00:37:07.773Z,100272.97
2022-09-06T00:39:35.411Z,100263.31
2022-09-06T00:42:02.212Z,100268.78
2022-09-06T00:44:29.051Z,100259.75
2022-09-06T00:46:56.247Z,100263.31
2022-09-06T00:49:41.822Z,100257.66
2022-09-06T00:52:12.631Z,100255.38
2022-09-06T00:54:40.625Z,100257.03
2022-09-06T00:57:07.984Z,100244.88
2022-09-06T00:59:38.198Z,100244.88
2022-09-06T01:02:05.871Z,100245.69
2022-09-06T01:04:33.666Z,100252.84
2022-09-06T01:07:14.173Z,100251.19
2022-09-06T01:10:30.155Z,100249.72
2022-09-06T01:13:57.416Z,100249.31
2022-09-06T01:16:32.808Z,100238.59
2022-09-06T01:19:17.821Z,100245.75
2022-09-06T01:22:17.996Z,100240.72
2022-09-06T01:25:39.089Z,100246.59
2022-09-06T01:28:22.061Z,100244.50
2022-09-06T01:31:02.890Z,100237.38
2022-09-06T01:33:44.939Z,100243.25
2022-09-06T01:36:18.762Z,100249.75
2022-09-06T01:38:46.079Z,100242.00
2022-09-06T01:41:12.880Z,100245.16
2022-09-06T01:43:45.157Z,100249.56
2022-09-06T01:47:05.611Z,100256.28
2022-09-06T01:50:20.959Z,100256.72
2022-09-06T01:53:25.299Z,100262.19
2022-09-06T01:56:17.675Z,100255.25
2022-09-06T01:59:14.225Z,100242.88
2022-09-06T02:02:27.090Z,100239.06
2022-09-06T02:05:05.450Z,100241.63
2022-09-06T02:07:35.748Z,100235.53
2022-09-06T02:10:22.959Z,100242.22
2022-09-06T02:12:55.113Z,100248.75
2022-09-06T02:15:28.811Z,100240.78
2022-09-06T02:18:13.339Z,100243.69
2022-09-06T02:20:51.957Z,100254.19
2022-09-06T02:23:21.493Z,100250.44
2022-09-06T02:25:54.827Z,100250.84
2022-09-06T02:28:22.974Z,100253.56
2022-09-06T02:30:54.722Z,100249.19
2022-09-06T02:33:29.484Z,100241.00
2022-09-06T02:35:56.868Z,100235.53
2022-09-06T02:38:26.448Z,100230.28
2022-09-06T02:40:55.235Z,100227.13
2022-09-06T02:43:22.020Z,100234.50
2022-09-06T02:45:49.026Z,100232.38
2022-09-06T02:48:15.891Z,100229.00
2022-09-06T02:50:42.675Z,100232.81
2022-09-06T02:53:12.835Z,100227.72
2022-09-06T02:55:39.910Z,100236.31
2022-09-06T02:58:09.955Z,100234.44
2022-09-06T03:00:37.921Z,100233.59
2022-09-06T03:03:05.244Z,100230.88
2022-09-06T03:05:32.256Z,100235.69
2022-09-06T03:07:59.463Z,100230.22
2022-09-06T03:10:26.539Z,100237.56
2022-09-06T03:12:54.053Z,100233.44
2022-09-06T03:15:20.902Z,100231.13
2022-09-06T03:17:47.746Z,100235.72
2022-09-06T03:20:14.835Z,100232.59
2022-09-06T03:22:42.394Z,100231.53
2022-09-06T03:25:11.200Z,100232.56
2022-09-06T03:27:38.331Z,100225.66
2022-09-06T03:30:07.291Z,100230.72
2022-09-06T03:32:34.393Z,100217.25
2022-09-06T03:35:01.277Z,100218.31
2022-09-06T03:37:28.503Z,100220.41
2022-09-06T03:39:55.411Z,100212.22
2022-09-06T03:42:22.645Z,100220.19
2022-09-06T03:44:49.468Z,100213.88
2022-09-06T03:47:19.407Z,100219.34
2022-09-06T03:49:47.203Z,100215.78
2022-09-06T03:52:14.660Z,100207.59
2022-09-06T03:54:41.464Z,100215.34
2022-09-06T03:57:08.311Z,100209.25
2022-09-06T03:59:35.681Z,100213.84
2022-09-06T04:02:03.005Z,100210.06
2022-09-06T04:04:30.332Z,100220.78
2022-09-06T04:06:57.159Z,100213.66
2022-09-06T04:09:24.206Z,100211.53
2022-09-06T04:11:51.154Z,100214.69
2022-09-06T04:14:18.036Z,100222.25
2022-09-06T04:16:44.877Z,100221.81
2022-09-06T04:19:11.884Z,100215.09
2022-09-06T04:21:39.015Z,100209.66
2022-09-06T04:24:05.931Z,100207.53
2022-09-06T04:26:33.167Z,100202.06
2022-09-06T04:29:00.178Z,100201.66
2022-09-06T04:31:27.599Z,100199.34
2022-09-06T04:33:54.419Z,100192.81
2022-09-06T04:36:21.770Z,100197.44
2022-09-06T04:38:48.556Z,100179.16
2022-09-06T04:41:17.536Z,100191.56
2022-09-06T04:43:45.071Z,100179.81
2022-09-06T04:46:25.180Z,100177.09
2022-09-06T04:48:54.002Z,100168.69
2022-09-06T04:51:22.061Z,100176.88
2022-09-06T04:53:49.109Z,100179.00
2022-09-06T04:56:23.212Z,100188.22
2022-09-06T04:58:51.728Z,100183.81
2022-09-06T05:01:19.135Z,100185.69
2022-09-06T05:03:47.145Z,100177.50
2022-09-06T05:06:21.650Z,100175.00
2022-09-06T05:08:49.484Z,100186.78
2022-09-06T05:11:17.483Z,100184.03
2022-09-06T05:13:47.397Z,100177.31
2022-09-06T05:16:14.660Z,100177.94
2022-09-06T05:18:41.585Z,100178.53
2022-09-06T05:21:08.435Z,100174.97
2022-09-06T05:23:35.445Z,100169.31
2022-09-06T05:26:02.663Z,100159.22
2022-09-06T05:28:29.990Z,100173.69
2022-09-06T05:31:10.170Z,100169.09
2022-09-06T05:33:37.163Z,100176.44
2022-09-06T05:36:07.619Z,100174.16
2022-09-06T05:38:34.444Z,100165.50
2022-09-06T05:41:01.417Z,100168.88
2022-09-06T05:43:28.207Z,100173.53
2022-09-06T05:45:55.084Z,100172.66
2022-09-06T05:48:21.995Z,100179.78
2022-09-06T05:50:48.828Z,100178.97
2022-09-06T05:53:15.619Z,100189.00
2022-09-06T05:55:43.249Z,100178.09
2022-09-06T05:58:10.156Z,100168.03
2022-09-06T06:00:37.039Z,100178.94
2022-09-06T06:03:03.800Z,100181.03
2022-09-06T06:05:30.620Z,100180.19
2022-09-06T06:07:59.097Z,100173.47
2022-09-06T06:10:26.055Z,100176.63
2022-09-06T06:12:52.888Z,100173.03
2022-09-06T06:15:19.691Z,100167.16
2022-09-06T06:17:46.455Z,100162.97
2022-09-06T06:20:13.414Z,100159.59
2022-09-06T06:22:40.197Z,100159.59
2022-09-06T06:25:07.526Z,100153.69
2022-09-06T06:27:35.523Z,100149.94
2022-09-06T06:30:02.310Z,100148.00
2022-09-06T06:32:29.100Z,100149.06
2022-09-06T06:34:55.882Z,100149.69
2022-09-06T06:37:22.747Z,100148.19
2022-09-06T06:39:49.732Z,100154.06
2022-09-06T06:42:16.614Z,100154.06
2022-09-06T06:44:43.452Z,100128.59
2022-09-06T06:47:10.245Z,100137.41
2022-09-06T06:49:37.035Z,100132.13
2022-09-06T06:52:04.025Z,100140.13
2022-09-06T06:54:31.213Z,100141.78
2022-09-06T06:56:58.017Z,100143.91
2022-09-06T06:59:24.850Z,100138.84
2022-09-06T07:01:51.929Z,100135.88
2022-09-06T07:04:18.798Z,100127.06
2022-09-06T07:12:30.453Z,100135.00
2022-09-06T07:14:57.238Z,100130.56
2022-09-06T07:17:24.046Z,100144.66
2022-09-06T07:22:39.662Z,100152.63
2022-09-06T07:25:08.452Z,100145.94
2022-09-06T07:27:51.015Z,100149.50
2022-09-06T07:30:20.391Z,100144.66
2022-09-06T07:32:48.227Z,100131.19
2022-09-06T07:35:15.208Z,100129.06
2022-09-06T07:37:42.331Z,100129.06
2022-09-06T07:40:10.412Z,100135.34
2022-09-06T07:42:37.372Z,100119.72
2022-09-06T07:45:05.649Z,100105.41
2022-09-06T07:53:09.525Z,100114.03
2022-09-06T07:55:39.821Z,100129.63
2022-09-06T07:58:06.599Z,100128.94
2022-09-06T08:00:33.550Z,100122.66
2022-09-06T08:03:00.354Z,100126.50
2022-09-06T08:11:01.247Z,100122.06
2022-09-06T08:13:28.152Z,100125.16
2022-09-06T08:16:07.543Z,100119.88
2022-09-06T08:18:38.391Z,100118.44
2022-09-06T08:21:12.601Z,100109.88
2022-09-06T08:23:52.548Z,100110.38
2022-09-06T08:26:21.556Z,100112.53
2022-09-06T08:28:48.951Z,100112.22
2022-09-06T08:31:18.130Z,100113.56
2022-09-06T08:33:45.073Z,100117.69
2022-09-06T08:36:12.315Z,100112.19
2022-09-06T08:38:39.495Z,100109.22
2022-09-06T08:41:15.294Z,100109.22
2022-09-06T08:47:13.685Z,100111.72
2022-09-06T08:49:47.379Z,100104.19
2022-09-06T08:52:24.384Z,100107.47
2022-09-06T08:55:06.394Z,100102.72
2022-09-06T08:57:52.655Z,100109.44
2022-09-06T09:00:20.828Z,100113.59
2022-09-06T09:02:55.368Z,100111.84
2022-09-06T09:05:28.447Z,100111.38
2022-09-06T09:08:27.440Z,100108.66
2022-09-06T09:11:07.951Z,100116.53
2022-09-06T09:13:55.686Z,100114.63
2022-09-06T09:16:23.544Z,100118.47
2022-09-06T09:18:55.511Z,100117.41
2022-09-06T09:21:30.437Z,100116.94
2022-09-06T09:24:03.720Z,100114.78
2022-09-06T09:26:39.817Z,100110.69
2022-09-06T09:29:11.673Z,100110.34
2022-09-06T09:31:53.616Z,100109.41
2022-09-06T09:34:39.853Z,100109.28
2022-09-06T09:40:07.797Z,100108.25
2022-09-06T09:42:37.817Z,100107.44
2022-09-06T09:45:24.827Z,100102.53
2022-09-06T09:47:52.111Z,100110.16
2022-09-06T09:50:32.592Z,100112.06
2022-09-06T09:53:15.794Z,100112.81
2022-09-06T09:55:44.249Z,100119.22
2022-09-06T09:58:37.494Z,100115.63
2022-09-06T10:01:23.219Z,100109.59
2022-09-06T10:09:37.534Z,100117.34
2022-09-06T10:12:05.094Z,100105.97
2022-09-06T10:14:44.322Z,100104.88
2022-09-06T10:17:30.988Z,100105.13
2022-09-06T10:20:04.199Z,100112.66
2022-09-06T10:22:40.189Z,100120.31
2022-09-06T10:25:15.960Z,100121.84
2022-09-06T10:28:13.256Z,100110.97
2022-09-06T10:30:58.115Z,100119.44
2022-09-06T10:33:46.136Z,100103.66
2022-09-06T10:36:26.398Z,100114.19
2022-09-06T10:39:00.369Z,100111.91
2022-09-06T10:41:48.916Z,100116.97
2022-09-06T10:44:35.199Z,100105.72
2022-09-06T10:47:13.561Z,100108.97
2022-09-06T10:49:46.131Z,100103.81
2022-09-06T10:52:26.936Z,100098.22
2022-09-06T10:55:02.302Z,100098.22
2022-09-06T11:00:49.553Z,100108.16
2022-09-06T11:06:25.503Z,100094.16
2022-09-06T11:09:47.599Z,100096.19
2022-09-06T11:12:33.397Z,100089.00
2022-09-06T11:15:03.740Z,100080.09
2022-09-06T11:17:47.735Z,100087.63
2022-09-06T11:20:31.377Z,100080.56
2022-09-06T11:23:29.521Z,100070.53
2022-09-06T11:26:05.426Z,100071.00
2022-09-06T11:28:37.760Z,100068.34
2022-09-06T11:31:05.927Z,100067.38
2022-09-06T11:33:36.575Z,100056.59
2022-09-06T11:36:40.896Z,100059.44
2022-09-06T11:39:09.696Z,100057.47
2022-09-06T11:41:41.533Z,100058.16
2022-09-06T11:44:10.703Z,100059.03
2022-09-06T11:46:38.935Z,100051.75
2022-09-06T11:49:29.861Z,100040.06
2022-09-06T11:51:56.696Z,100038.97
2022-09-06T11:54:35.095Z,100031.72
2022-09-06T11:57:13.148Z,100034.28
2022-09-06T11:59:46.129Z,100024.47
2022-09-06T12:02:41.083Z,100013.47
2022-09-06T12:05:14.077Z,100012.69
2022-09-06T12:08:24.944Z,100000.69
2022-09-06T12:11:30.562Z,100008.84
2022-09-06T12:14:03.847Z,100005.13
2022-09-06T12:16:58.638Z,99994.81
2022-09-06T12:20:06.208Z,99994.91
2022-09-06T12:22:33.360Z,99985.06
2022-09-06T12:25:24.598Z,99976.53
2022-09-06T12:28:03.384Z,99972.44
2022-09-06T12:30:37.437Z,99976.84
2022-09-06T12:33:22.583Z,99966.91
2022-09-06T12:35:58.631Z,99964.16
2022-09-06T12:38:26.429Z,99963.06
2022-09-06T12:40:58.610Z,99955.09
2022-09-06T12:43:26.571Z,99956.44
2022-09-06T12:45:53.663Z,99948.63
2022-09-06T12:48:36.258Z,99951.84
2022-09-06T12:51:06.942Z,99945.72
2022-09-06T12:53:35.117Z,99948.53
2022-09-06T12:56:10.280Z,99930.94
2022-09-06T12:58:38.867Z,99934.91
2022-09-06T13:01:26.372Z,99921.78
2022-09-06T13:04:13.034Z,99933.97
2022-09-06T13:06:43.649Z,99923.03
2022-09-06T13:09:15.620Z,99917.56
2022-09-06T13:11:51.966Z,99919.28
2022-09-06T13:14:28.334Z,99906.88
2022-09-06T13:16:58.420Z,99905.53
2022-09-06T13:19:40.696Z,99902.97
2022-09-06T13:22:11.298Z,99901.09
2022-09-06T13:24:47.025Z,99891.69
2022-09-06T13:27:38.554Z,99886.16
2022-09-06T13:30:09.508Z,99885.09
2022-09-06T13:32:46.185Z,99882.91
2022-09-06T13:35:24.022Z,99887.09
2022-09-06T13:37:51.115Z,99894.06
2022-09-06T13:41:08.994Z,99884.44
2022-09-06T13:43:29.450Z,99880.56
2022-09-06T13:46:08.429Z,99876.97
2022-09-06T13:48:36.057Z,99873.94
2022-09-06T13:51:09.779Z,99871.44
2022-09-06T13:53:36.726Z,99865.34
2022-09-06T13:56:03.920Z,99858.75
2022-09-06T13:58:30.821Z,99857.66
2022-09-06T14:00:58.779Z,99850.75
2022-09-06T14:03:31.250Z,99860.94
2022-09-06T14:06:00.591Z,99855.03
2022-09-06T14:08:49.267Z,99850.91
2022-09-06T14:11:18.597Z,99854.31
2022-09-06T14:13:46.031Z,99846.03
2022-09-06T14:16:12.970Z,99850.75
2022-09-06T14:18:40.684Z,99845.50
2022-09-06T14:21:07.969Z,99823.19
2022-09-06T14:23:34.817Z,99835.59
2022-09-06T14:26:04.126Z,99833.41
2022-09-06T14:28:33.723Z,99828.13
2022-09-06T14:31:13.009Z,99827.75
2022-09-06T14:33:39.990Z,99820.00
2022-09-06T14:36:12.484Z,99817.53
2022-09-06T14:38:41.828Z,99811.44
2022-09-06T14:41:09.911Z,99811.69
2022-09-06T14:43:37.988Z,99814.97
2022-09-06T14:46:14.426Z,99807.53
2022-09-06T14:48:43.076Z,99816.88
2022-09-06T14:51:22.136Z,99810.56
2022-09-06T14:53:56.329Z,99815.28
2022-09-06T14:56:23.928Z,99804.00
2022-09-06T14:58:50.808Z,99815.59
2022-09-06T15:01:21.582Z,99810.34
2022-09-06T15:03:52.382Z,99807.59
2022-09-06T15:06:22.195Z,99808.75
2022-09-06T15:08:50.373Z,99812.28
2022-09-06T15:11:40.333Z,99798.78
2022-09-06T15:14:13.529Z,99812.88
2022-09-06T15:16:40.355Z,99807.34
2022-09-06T15:19:08.037Z,99800.13
2022-09-06T15:21:34.963Z,99802.88
2022-09-06T15:24:03.219Z,99808.97
2022-09-06T15:26:30.651Z,99790.19
2022-09-06T15:28:57.570Z,99795.44
2022-09-06T15:31:24.543Z,99801.22
2022-09-06T15:33:52.224Z,99798.22
2022-09-06T15:36:19.263Z,99789.66
2022-09-06T15:38:51.084Z,99790.78
2022-09-06T15:41:22.805Z,99789.63
2022-09-06T15:43:52.830Z,99784.13
2022-09-06T15:46:41.002Z,99779.13
2022-09-06T15:49:10.189Z,99773.78
2022-09-06T15:51:38.991Z,99779.63
2022-09-06T15:54:07.166Z,99779.59
2022-09-06T15:56:34.284Z,99779.31
2022-09-06T15:59:01.418Z,99777.63
2022-09-06T16:01:28.522Z,99769.34
2022-09-06T16:04:03.816Z,99769.06
2022-09-06T16:06:42.168Z,99765.22
2022-09-06T16:09:14.364Z,99759.19
2022-09-06T16:11:42.333Z,99756.19
2022-09-06T16:14:13.263Z,99756.47
2022-09-06T16:16:41.927Z,99763.06
2022-09-06T16:19:10.174Z,99769.16
2022-09-06T16:21:39.786Z,99759.19
2022-09-06T16:24:10.207Z,99755.88
2022-09-06T16:26:41.219Z,99747.31
2022-09-06T16:29:10.094Z,99745.88
2022-09-06T16:31:40.233Z,99752.78
2022-09-06T16:34:09.950Z,99747.56
2022-09-06T16:36:37.557Z,99749.75
2022-09-06T16:39:05.346Z,99754.13
2022-09-06T16:41:39.567Z,99753.56
2022-09-06T16:44:16.626Z,99755.16
2022-09-06T16:46:50.055Z,99750.72
2022-09-06T16:49:17.890Z,99755.13
2022-09-06T16:51:46.005Z,99748.97
2022-09-06T16:54:14.123Z,99745.63
2022-09-06T16:56:41.658Z,99746.94
2022-09-06T16:59:10.448Z,99744.75
2022-09-06T17:01:42.028Z,99740.00
2022-09-06T17:04:09.993Z,99749.34
2022-09-06T17:06:44.964Z,99749.31
2022-09-06T17:09:16.194Z,99743.78
2022-09-06T17:11:43.107Z,99753.72
2022-09-06T17:14:10.118Z,99756.47
2022-09-06T17:16:55.771Z,99753.78
2022-09-06T17:19:22.711Z,99739.50
2022-09-06T17:21:50.202Z,99735.91
2022-09-06T17:24:17.017Z,99747.81
2022-09-06T17:26:43.886Z,99745.59
2022-09-06T17:29:11.055Z,99745.31
2022-09-06T17:31:38.234Z,99747.81
2022-09-06T17:34:05.451Z,99743.06
2022-09-06T17:36:33.951Z,99738.97
2022-09-06T17:39:04.626Z,99729.63
2022-09-06T17:41:46.141Z,99736.25
2022-09-06T17:44:17.008Z,99733.59
2022-09-06T17:47:02.662Z,99749.75
2022-09-06T17:49:31.767Z,99747.59
2022-09-06T17:51:58.636Z,99742.00
2022-09-06T17:54:25.925Z,99748.06
2022-09-06T17:56:53.014Z,99748.81
2022-09-06T17:59:19.972Z,99747.16
2022-09-06T18:01:47.039Z,99746.03
2022-09-06T18:04:14.898Z,99750.38
2022-09-06T18:06:43.714Z,99738.44
2022-09-06T18:09:15.589Z,99742.50
2022-09-06T18:11:46.056Z,99741.84
2022-09-06T18:14:17.797Z,99739.00
2022-09-06T18:16:47.406Z,99734.47
2022-09-06T18:19:15.456Z,99743.19
2022-09-06T18:21:42.772Z,99748.56
2022-09-06T18:24:10.850Z,99742.97
2022-09-06T18:26:37.823Z,99740.94
2022-09-06T18:29:08.523Z,99751.47
2022-09-06T18:31:35.921Z,99749.22
2022-09-06T18:34:02.776Z,99748.06
2022-09-06T18:36:32.414Z,99754.59
2022-09-06T18:39:05.066Z,99753.91
2022-09-06T18:41:52.199Z,99757.13
2022-09-06T18:44:19.232Z,99761.38
2022-09-06T18:46:46.324Z,99763.00
2022-09-06T18:49:15.291Z,99758.47
2022-09-06T18:51:43.769Z,99754.56
2022-09-06T18:54:11.264Z,99755.84
2022-09-06T18:56:38.687Z,99757.19
2022-09-06T18:59:06.240Z,99758.69
2022-09-06T19:01:35.234Z,99761.59
2022-09-06T19:04:04.094Z,99763.53
2022-09-06T19:06:33.507Z,99771.69
2022-09-06T19:09:08.367Z,99764.22
2022-09-06T19:11:36.084Z,99762.81
2022-09-06T19:14:04.408Z,99773.69
2022-09-06T19:16:32.088Z,99764.88
2022-09-06T19:19:08.560Z,99762.03
2022-09-06T19:21:41.016Z,99767.53
2022-09-06T19:24:10.919Z,99771.03
2022-09-06T19:26:41.684Z,99764.09
2022-09-06T19:29:14.851Z,99772.34
2022-09-06T19:31:42.759Z,99775.09
2022-09-06T19:34:10.077Z,99774.13
2022-09-06T19:36:36.913Z,99771.91
2022-09-06T19:39:10.318Z,99774.91
2022-09-06T19:41:43.099Z,99770.22
2022-09-06T19:44:11.336Z,99773.22
2022-09-06T19:46:39.456Z,99775.97
2022-09-06T19:49:09.436Z,99770.72
2022-09-06T19:51:37.304Z,99778.13
2022-09-06T19:54:05.158Z,99779.81
2022-09-06T19:56:35.060Z,99774.22
2022-09-06T19:59:08.050Z,99769.31
2022-09-06T20:01:37.758Z,99771.00
2022-09-06T20:04:08.200Z,99772.28
2022-09-06T20:06:36.100Z,99766.97
2022-09-06T20:09:06.751Z,99774.34
2022-09-06T20:11:36.171Z,99766.41
2022-09-06T20:14:03.378Z,99776.78
2022-09-06T20:16:30.796Z,99777.28
2022-09-06T20:19:01.745Z,99779.91
2022-09-06T20:21:29.742Z,99773.84
2022-09-06T20:23:59.498Z,99775.91
2022-09-06T20:26:29.562Z,99771.97
2022-09-06T20:28:59.864Z,99775.72
2022-09-06T20:31:29.343Z,99774.31
2022-09-06T20:33:58.243Z,99783.13
2022-09-06T20:36:25.521Z,99775.66
2022-09-06T20:38:52.432Z,99783.78
2022-09-06T20:41:23.651Z,99784.16
2022-09-06T20:43:59.274Z,99788.22
2022-09-06T20:46:29.605Z,99791.31
2022-09-06T20:48:59.904Z,99792.63
2022-09-06T20:51:26.895Z,99786.19
2022-09-06T20:53:56.887Z,99792.16
2022-09-06T20:56:35.241Z,99787.53
2022-09-06T20:59:04.850Z,99784.44
2022-09-06T21:01:36.115Z,99789.31
2022-09-06T21:04:06.444Z,99795.53
2022-09-06T21:06:36.350Z,99794.34
2022-09-06T21:09:13.478Z,99801.34
2022-09-06T21:11:41.381Z,99786.22
2022-09-06T21:14:09.988Z,99789.72
2022-09-06T21:16:37.853Z,99800.31
2022-09-06T21:19:08.995Z,99790.91
2022-09-06T21:21:37.099Z,99792.69
2022-09-06T21:24:07.082Z,99788.25
2022-09-06T21:26:34.331Z,99784.09
2022-09-06T21:29:01.620Z,99790.41
2022-09-06T21:31:32.338Z,99792.56
2022-09-06T21:34:07.415Z,99795.06
2022-09-06T21:36:37.440Z,99794.19
2022-09-06T21:39:09.687Z,99793.16
2022-09-06T21:41:42.507Z,99784.22
2022-09-06T21:44:10.551Z,99782.19
2022-09-06T21:46:39.555Z,99779.44
2022-09-06T21:49:10.422Z,99780.50
2022-09-06T21:51:38.862Z,99784.09
2022-09-06T21:54:06.315Z,99778.84
2022-09-06T21:56:38.459Z,99782.06
2022-09-06T21:59:06.578Z,99782.06
2022-09-06T22:01:35.691Z,99791.38
2022-09-06T22:04:03.707Z,99795.16
2022-09-06T22:06:32.609Z,99801.72
2022-09-06T22:09:03.709Z,99798.13
2022-09-06T22:11:34.045Z,99795.53
2022-09-06T22:14:07.072Z,99792.78
2022-09-06T22:16:37.598Z,99796.47
2022-09-06T22:19:06.846Z,99791.31
2022-09-06T22:21:34.926Z,99787.53
2022-09-06T22:24:06.439Z,99783.59
2022-09-06T22:26:36.742Z,99778.72
2022-09-06T22:29:07.163Z,99779.19
2022-09-06T22:31:35.722Z,99789.06
2022-09-06T22:34:03.386Z,99783.59
2022-09-06T22:36:33.806Z,99784.19
2022-09-06T22:39:00.646Z,99787.63
2022-09-06T22:41:31.663Z,99774.16
2022-09-06T22:44:02.415Z,99774.63
2022-09-06T22:46:30.160Z,99768.78
2022-09-06T22:48:57.344Z,99771.97
2022-09-06T22:51:24.396Z,99767.22
2022-09-06T22:53:51.261Z,99773.63
2022-09-06T22:56:18.420Z,99765.75
2022-09-06T22:58:45.292Z,99766.69
2022-09-06T23:01:15.376Z,99766.69
2022-09-06T23:03:43.052Z,99771.19
2022-09-06T23:06:10.917Z,99771.41
2022-09-06T23:08:40.591Z,99760.81
2022-09-06T23:11:13.766Z,99754.00
2022-09-06T23:13:44.072Z,99754.81
2022-09-06T23:16:15.474Z,99752.81
2022-09-06T23:18:42.901Z,99755.75
2022-09-06T23:21:17.474Z,99755.38
2022-09-06T23:23:45.455Z,99753.72
2022-09-06T23:26:15.975Z,99759.06
2022-09-06T23:28:43.616Z,99758.91
2022-09-06T23:31:14.306Z,99752.69
2022-09-06T23:33:42.384Z,99755.41
2022-09-06T23:36:13.278Z,99753.59
2022-09-06T23:38:42.023Z,99756.19
2022-09-06T23:41:10.448Z,99751.78
2022-09-06T23:43:38.562Z,99753.31
2022-09-06T23:46:05.401Z,99751.66
2022-09-06T23:48:32.460Z,99745.16
2022-09-06T23:50:59.805Z,99752.97
2022-09-06T23:53:26.907Z,99753.44
2022-09-06T23:55:53.812Z,99753.91
2022-09-06T23:58:21.243Z,99752.69
